Time,TemperatureF,DewpointF,PressureIn,WindDirection,WindDirectionDegrees,WindSpeedMPH,WindSpeedGustMPH,Humidity,HourlyPrecipIn,Conditions,Clouds,dailyrainin,SoftwareType,DateUTC
2013-02-24 08:10:00,21.1,11.9,29.75,SSW,202,1.0,2.0,67,0.00,,---,0.00,VWS V14.01,2013-02-24 15:10:00,
2013-02-24 08:26:00,21.1,11.9,29.75,SSW,202,1.0,2.0,67,0.00,,---,0.00,VWS V14.01,2013-02-24 15:26:00,
2013-02-24 08:31:00,20.6,13.3,29.75,SW,216,9.0,12.0,73,0.00,,---,0.00,VWS V14.01,2013-02-24 15:31:00,
2013-02-24 08:36:00,21.7,15.3,29.73,WSW,240,11.0,11.0,76,0.00,,---,0.00,VWS V14.01,2013-02-24 15:36:00,
2013-02-24 08:41:00,21.7,15.6,29.73,WSW,246,7.0,7.0,77,0.00,,---,0.00,VWS V14.01,2013-02-24 15:41:00,
2013-02-24 08:46:00,22.1,16.6,29.73,WSW,246,5.0,5.0,79,0.00,,---,0.00,VWS V14.01,2013-02-24 15:46:00,
2013-02-24 08:51:00,22.2,15.8,29.74,WNW,294,6.0,7.0,76,0.00,,---,0.00,VWS V14.01,2013-02-24 15:51:00,
2013-02-24 08:56:00,22.4,15.7,29.74,WNW,294,5.0,8.0,75,0.00,,---,0.00,VWS V14.01,2013-02-24 15:56:00,
2013-02-24 09:01:00,23.0,16.0,29.74,WNW,294,0.0,2.0,74,0.00,,---,0.00,VWS V14.01,2013-02-24 16:01:00,
2013-02-24 09:06:00,23.8,16.1,29.73,WNW,294,0.0,4.0,72,0.00,,---,0.00,VWS V14.01,2013-02-24 16:06:00,
2013-02-24 09:11:00,24.5,16.5,29.78,WNW,294,0.0,0.0,71,0.00,,---,0.00,VWS V14.01,2013-02-24 16:11:00,
2013-02-24 09:16:00,25.2,17.1,29.76,WNW,294,1.0,1.0,71,0.00,,---,0.00,VWS V14.01,2013-02-24 16:16:00,
2013-02-24 09:21:00,25.8,17.7,29.77,WNW,294,0.0,0.0,71,0.00,,---,0.00,VWS V14.01,2013-02-24 16:21:00,
2013-02-24 09:26:00,26.2,18.1,29.77,WNW,294,0.0,3.0,71,0.00,,---,0.00,VWS V14.01,2013-02-24 16:26:00,
2013-02-24 09:31:00,25.7,17.3,29.77,WNW,294,7.0,8.0,70,0.00,,---,0.00,VWS V14.01,2013-02-24 16:31:00,
2013-02-24 09:36:00,24.7,17.3,29.77,WNW,294,7.0,7.0,73,0.00,,---,0.00,VWS V14.01,2013-02-24 16:36:00,
2013-02-24 09:41:00,24.7,17.3,29.78,WNW,294,4.0,4.0,73,0.00,,---,0.00,VWS V14.01,2013-02-24 16:41:00,
2013-02-24 09:46:00,24.9,17.5,29.78,WNW,294,7.0,7.0,73,0.00,,---,0.00,VWS V14.01,2013-02-24 16:46:00,
2013-02-24 09:51:00,25.2,17.5,29.78,WNW,294,1.0,2.0,72,0.00,,---,0.00,VWS V14.01,2013-02-24 16:51:00,
2013-02-24 09:56:00,25.6,18.2,29.79,WNW,294,4.0,4.0,73,0.00,,---,0.00,VWS V14.01,2013-02-24 16:56:00,
2013-02-24 10:01:00,26.0,17.9,29.79,WNW,294,9.0,9.0,71,0.00,,---,0.00,VWS V14.01,2013-02-24 17:01:00,
2013-02-24 10:06:00,25.6,17.8,29.77,WNW,294,8.0,8.0,72,0.00,,---,0.00,VWS V14.01,2013-02-24 17:06:00,
2013-02-24 10:11:00,25.6,17.8,29.77,WNW,294,7.0,7.0,72,0.00,,---,0.00,VWS V14.01,2013-02-24 17:11:00,
2013-02-24 10:17:00,25.5,17.4,29.77,WNW,294,7.0,10.0,71,0.00,,---,0.00,VWS V14.01,2013-02-24 17:17:00,
2013-02-24 10:22:00,25.4,17.3,29.79,WNW,294,6.0,9.0,71,0.00,,---,0.00,VWS V14.01,2013-02-24 17:22:00,
2013-02-24 10:27:00,25.5,17.4,29.77,WNW,294,3.0,10.0,71,0.00,,---,0.00,VWS V14.01,2013-02-24 17:27:00,
2013-02-24 10:32:00,25.7,19.2,29.77,WNW,294,9.0,9.0,76,0.00,,---,0.00,VWS V14.01,2013-02-24 17:32:00,
2013-02-24 10:37:00,26.1,17.3,29.77,WNW,294,0.0,0.0,69,0.00,,---,0.00,VWS V14.01,2013-02-24 17:37:00,
2013-02-24 10:42:00,26.7,16.5,29.77,WNW,294,0.0,0.0,65,0.00,,---,0.00,VWS V14.01,2013-02-24 17:42:00,
2013-02-24 10:47:00,27.1,16.2,29.78,WNW,294,0.0,1.0,63,0.00,,---,0.00,VWS V14.01,2013-02-24 17:47:00,
2013-02-24 10:52:00,27.7,16.8,29.76,WNW,294,0.0,3.0,63,0.00,,---,0.00,VWS V14.01,2013-02-24 17:52:00,
2013-02-24 10:57:00,27.7,16.8,29.76,WNW,294,0.0,2.0,63,0.00,,---,0.00,VWS V14.01,2013-02-24 17:57:00,
2013-02-24 11:02:00,28.0,17.0,29.76,WNW,294,2.0,2.0,63,0.00,,---,0.00,VWS V14.01,2013-02-24 18:02:00,
2013-02-24 11:07:00,28.1,16.8,29.76,WNW,294,5.0,6.0,62,0.00,,---,0.00,VWS V14.01,2013-02-24 18:07:00,
2013-02-24 11:12:00,28.0,17.4,29.76,WNW,294,0.0,3.0,64,0.00,,---,0.00,VWS V14.01,2013-02-24 18:12:00,
2013-02-24 11:17:00,28.2,17.2,29.76,WNW,294,5.0,5.0,63,0.00,,---,0.00,VWS V14.01,2013-02-24 18:17:00,
2013-02-24 11:22:00,28.2,16.9,29.76,WNW,294,4.0,4.0,62,0.00,,---,0.00,VWS V14.01,2013-02-24 18:22:00,
2013-02-24 11:27:00,28.1,16.8,29.76,WNW,294,0.0,2.0,62,0.00,,---,0.00,VWS V14.01,2013-02-24 18:27:00,
2013-02-24 11:32:00,28.2,17.2,29.76,WNW,294,6.0,9.0,63,0.00,,---,0.00,VWS V14.01,2013-02-24 18:32:00,
2013-02-24 11:37:00,27.6,17.4,29.76,WNW,294,0.0,1.0,65,0.00,,---,0.00,VWS V14.01,2013-02-24 18:37:00,
2013-02-24 11:42:00,26.9,17.1,29.79,WNW,294,8.0,8.0,66,0.00,,---,0.00,VWS V14.01,2013-02-24 18:42:00,
2013-02-24 11:47:00,25.7,17.3,29.79,WNW,294,6.0,8.0,70,0.00,,---,0.00,VWS V14.01,2013-02-24 18:47:00,
2013-02-24 11:52:00,25.2,17.8,29.81,WNW,294,1.0,7.0,73,0.01,,---,0.01,VWS V14.01,2013-02-24 18:52:00,
2013-02-24 11:57:00,25.2,18.1,29.81,WNW,294,4.0,6.0,74,0.01,,---,0.01,VWS V14.01,2013-02-24 18:57:00,
2013-02-24 12:02:00,25.3,18.2,29.81,WNW,294,5.0,5.0,74,0.01,,---,0.01,VWS V14.01,2013-02-24 19:02:00,
2013-02-24 12:07:00,25.5,18.7,29.81,WNW,294,5.0,5.0,75,0.01,,---,0.01,VWS V14.01,2013-02-24 19:07:00,
2013-02-24 12:12:00,25.6,18.8,29.79,WNW,294,3.0,6.0,75,0.01,,---,0.01,VWS V14.01,2013-02-24 19:12:00,
2013-02-24 12:17:00,25.5,18.4,29.79,WNW,294,0.0,4.0,74,0.01,,---,0.01,VWS V14.01,2013-02-24 19:17:00,
2013-02-24 12:22:00,26.0,18.9,29.79,WNW,294,0.0,0.0,74,0.01,,---,0.01,VWS V14.01,2013-02-24 19:22:00,
2013-02-24 12:27:00,26.3,18.5,29.78,WNW,294,6.0,6.0,72,0.01,,---,0.01,VWS V14.01,2013-02-24 19:27:00,
2013-02-24 12:32:00,26.0,17.9,29.78,WNW,294,3.0,7.0,71,0.01,,---,0.01,VWS V14.01,2013-02-24 19:32:00,
2013-02-24 12:37:00,26.2,18.1,29.79,WNW,294,2.0,5.0,71,0.02,,---,0.02,VWS V14.01,2013-02-24 19:37:00,
2013-02-24 12:42:00,26.5,18.7,29.79,WNW,294,7.0,8.0,72,0.02,,---,0.02,VWS V14.01,2013-02-24 19:42:00,
2013-02-24 12:47:00,26.3,18.5,29.78,WNW,294,4.0,10.0,72,0.02,,---,0.02,VWS V14.01,2013-02-24 19:47:00,
2013-02-24 12:52:00,26.0,18.2,29.78,WNW,294,1.0,7.0,72,0.01,,---,0.02,VWS V14.01,2013-02-24 19:52:00,
2013-02-24 12:57:00,26.1,18.3,29.78,WNW,294,1.0,6.0,72,0.01,,---,0.02,VWS V14.01,2013-02-24 19:57:00,
2013-02-24 13:02:00,26.2,18.4,29.78,WNW,294,2.0,8.0,72,0.02,,---,0.03,VWS V14.01,2013-02-24 20:02:00,
2013-02-24 13:07:00,26.8,19.0,29.78,WNW,294,0.0,1.0,72,0.02,,---,0.03,VWS V14.01,2013-02-24 20:07:00,
2013-02-24 13:12:00,27.7,19.2,29.78,WNW,294,0.0,1.0,70,0.02,,---,0.03,VWS V14.01,2013-02-24 20:12:00,
2013-02-24 13:17:00,28.2,18.7,29.78,WNW,294,0.0,5.0,67,0.02,,---,0.03,VWS V14.01,2013-02-24 20:17:00,
2013-02-24 13:22:00,28.1,17.9,29.79,WNW,295,2.0,10.0,65,0.02,,---,0.03,VWS V14.01,2013-02-24 20:22:00,
2013-02-24 13:27:00,27.9,17.0,29.79,WNW,296,1.0,4.0,63,0.03,,---,0.04,VWS V14.01,2013-02-24 20:27:00,
2013-02-24 13:32:00,28.2,17.2,29.79,WNW,296,3.0,6.0,63,0.03,,---,0.04,VWS V14.01,2013-02-24 20:32:00,
2013-02-24 13:37:00,27.8,16.9,29.79,WNW,295,5.0,5.0,63,0.03,,---,0.04,VWS V14.01,2013-02-24 20:37:00,
2013-02-24 13:42:00,27.7,16.8,29.79,WNW,296,0.0,5.0,63,0.02,,---,0.04,VWS V14.01,2013-02-24 20:42:00,
2013-02-24 13:47:00,27.4,17.2,29.79,WNW,296,1.0,4.0,65,0.02,,---,0.04,VWS V14.01,2013-02-24 20:47:00,
2013-02-24 13:52:00,27.4,17.5,29.79,WNW,296,4.0,7.0,66,0.02,,---,0.04,VWS V14.01,2013-02-24 20:52:00,
2013-02-24 13:57:00,27.3,17.1,29.80,WNW,296,3.0,5.0,65,0.02,,---,0.04,VWS V14.01,2013-02-24 20:57:00,
2013-02-24 14:02:00,27.4,17.2,29.80,WNW,296,2.0,9.0,65,0.01,,---,0.04,VWS V14.01,2013-02-24 21:02:00,
2013-02-24 14:07:00,27.1,17.6,29.82,WNW,296,4.0,6.0,67,0.01,,---,0.04,VWS V14.01,2013-02-24 21:07:00,
2013-02-24 14:12:00,27.0,18.2,29.82,WNW,297,2.0,6.0,69,0.01,,---,0.04,VWS V14.01,2013-02-24 21:12:00,
2013-02-24 14:17:00,27.0,17.5,29.82,NW,323,9.0,11.0,67,0.01,,---,0.04,VWS V14.01,2013-02-24 21:17:00,
2013-02-24 14:22:00,26.4,17.3,29.83,NNW,342,6.0,12.0,68,0.01,,---,0.04,VWS V14.01,2013-02-24 21:22:00,
2013-02-24 14:27:00,26.3,17.5,29.85,North,360,8.0,9.0,69,0.00,,---,0.04,VWS V14.01,2013-02-24 21:27:00,
2013-02-24 14:32:00,26.3,17.5,29.85,NNE,15,9.0,14.0,69,0.00,,---,0.04,VWS V14.01,2013-02-24 21:32:00,
2013-02-24 14:37:00,25.9,17.5,29.86,North,10,13.0,18.0,70,0.00,,---,0.04,VWS V14.01,2013-02-24 21:37:00,
2013-02-24 14:42:00,23.1,16.7,29.88,NNW,346,13.0,13.0,76,0.01,,---,0.05,VWS V14.01,2013-02-24 21:42:00,
2013-02-24 14:47:00,22.1,16.3,29.91,NNW,341,13.0,15.0,78,0.01,,---,0.05,VWS V14.01,2013-02-24 21:47:00,
2013-02-24 14:52:00,22.2,17.0,29.91,NNW,340,9.0,15.0,80,0.01,,---,0.05,VWS V14.01,2013-02-24 21:52:00,
2013-02-24 14:57:00,21.6,16.4,29.91,NNW,340,8.0,15.0,80,0.01,,---,0.05,VWS V14.01,2013-02-24 21:57:00,
2013-02-24 15:02:00,21.9,17.3,29.92,NNW,340,0.0,6.0,82,0.01,,---,0.05,VWS V14.01,2013-02-24 22:02:00,
2013-02-24 15:07:00,22.1,17.5,29.96,NNW,340,5.0,5.0,82,0.01,,---,0.05,VWS V14.01,2013-02-24 22:07:00,
2013-02-24 15:13:00,21.7,17.1,29.96,NNW,340,0.0,4.0,82,0.01,,---,0.05,VWS V14.01,2013-02-24 22:13:00,
2013-02-24 15:18:00,21.8,17.2,29.97,NNW,340,0.0,6.0,82,0.01,,---,0.05,VWS V14.01,2013-02-24 22:18:00,
2013-02-24 15:23:00,21.8,17.2,29.97,NNW,340,1.0,6.0,82,0.01,,---,0.05,VWS V14.01,2013-02-24 22:23:00,
2013-02-24 15:28:00,22.0,17.6,29.97,NNW,340,5.0,8.0,83,0.01,,---,0.05,VWS V14.01,2013-02-24 22:28:00,
2013-02-24 15:33:00,21.7,17.3,29.98,NNW,340,4.0,9.0,83,0.01,,---,0.05,VWS V14.01,2013-02-24 22:33:00,
2013-02-24 15:38:00,21.6,17.2,29.98,NNW,340,3.0,8.0,83,0.01,,---,0.05,VWS V14.01,2013-02-24 22:38:00,
2013-02-24 15:43:00,21.6,17.2,29.98,NNW,340,1.0,7.0,83,0.00,,---,0.05,VWS V14.01,2013-02-24 22:43:00,
2013-02-24 15:48:00,21.5,17.1,29.98,NNW,340,7.0,12.0,83,0.00,,---,0.05,VWS V14.01,2013-02-24 22:48:00,
2013-02-24 15:53:00,21.4,17.0,29.99,NNW,340,6.0,9.0,83,0.00,,---,0.05,VWS V14.01,2013-02-24 22:53:00,
2013-02-24 15:58:00,21.5,17.4,29.99,NNW,340,8.0,12.0,84,0.00,,---,0.05,VWS V14.01,2013-02-24 22:58:00,
2013-02-24 16:03:00,21.4,17.0,30.00,NNW,340,7.0,7.0,83,0.00,,---,0.05,VWS V14.01,2013-02-24 23:03:00,
2013-02-24 16:08:00,21.5,17.4,30.00,NNW,340,9.0,12.0,84,0.00,,---,0.05,VWS V14.01,2013-02-24 23:08:00,
2013-02-24 16:13:00,21.3,17.0,30.02,NNW,340,3.0,11.0,83,0.00,,---,0.05,VWS V14.01,2013-02-24 23:13:00,
2013-02-24 16:18:00,21.2,16.9,30.03,NNW,340,6.0,11.0,83,0.00,,---,0.05,VWS V14.01,2013-02-24 23:18:00,
2013-02-24 16:23:00,21.1,16.2,30.03,NNW,340,9.0,14.0,81,0.00,,---,0.05,VWS V14.01,2013-02-24 23:23:00,
2013-02-24 16:28:00,21.2,16.6,30.03,NNW,340,4.0,11.0,82,0.00,,---,0.05,VWS V14.01,2013-02-24 23:28:00,
2013-02-24 16:33:00,21.2,16.6,30.03,NNW,340,6.0,9.0,82,0.00,,---,0.05,VWS V14.01,2013-02-24 23:33:00,
2013-02-24 16:38:00,21.2,16.9,30.04,NNW,340,5.0,7.0,83,0.00,,---,0.05,VWS V14.01,2013-02-24 23:38:00,
2013-02-24 16:43:00,21.1,16.5,30.04,NNW,340,7.0,10.0,82,0.00,,---,0.05,VWS V14.01,2013-02-24 23:43:00,
2013-02-24 16:48:00,21.0,16.4,30.05,NNW,340,3.0,5.0,82,0.00,,---,0.05,VWS V14.01,2013-02-24 23:48:00,
2013-02-24 16:53:00,21.0,16.4,30.05,NNW,340,3.0,8.0,82,0.00,,---,0.05,VWS V14.01,2013-02-24 23:53:00,
2013-02-24 16:58:00,21.0,16.4,30.06,NNW,340,4.0,7.0,82,0.00,,---,0.05,VWS V14.01,2013-02-24 23:58:00,
2013-02-24 17:03:00,20.9,16.0,30.06,NNW,339,5.0,8.0,81,0.00,,---,0.05,VWS V14.01,2013-02-25 00:03:00,
2013-02-24 17:08:00,21.0,16.1,30.03,NNW,340,2.0,6.0,81,0.00,,---,0.05,VWS V14.01,2013-02-25 00:08:00,
2013-02-24 17:13:00,21.0,15.8,30.03,NNW,340,4.0,6.0,80,0.00,,---,0.05,VWS V14.01,2013-02-25 00:13:00,
2013-02-24 17:18:00,21.0,15.8,30.03,NNW,340,2.0,8.0,80,0.00,,---,0.05,VWS V14.01,2013-02-25 00:18:00,
2013-02-24 17:23:00,21.1,15.6,30.04,NNW,340,6.0,14.0,79,0.00,,---,0.05,VWS V14.01,2013-02-25 00:23:00,
2013-02-24 17:28:00,20.9,15.1,30.04,NNW,338,7.0,11.0,78,0.00,,---,0.05,VWS V14.01,2013-02-25 00:28:00,
2013-02-24 17:33:00,20.8,15.3,30.05,NNW,340,6.0,8.0,79,0.00,,---,0.05,VWS V14.01,2013-02-25 00:33:00,
2013-02-24 17:38:00,20.8,15.3,30.05,NNW,340,5.0,8.0,79,0.00,,---,0.05,VWS V14.01,2013-02-25 00:38:00,
2013-02-24 17:43:00,20.7,14.6,30.05,NNW,340,2.0,11.0,77,0.00,,---,0.05,VWS V14.01,2013-02-25 00:43:00,
2013-02-24 17:48:00,20.6,14.2,30.05,NNW,340,9.0,10.0,76,0.00,,---,0.05,VWS V14.01,2013-02-25 00:48:00,
2013-02-24 17:53:00,20.3,12.7,30.06,NNW,338,1.0,15.0,72,0.00,,---,0.05,VWS V14.01,2013-02-25 00:53:00,
2013-02-24 17:58:00,20.2,12.6,30.06,NNW,339,9.0,13.0,72,0.00,,---,0.05,VWS V14.01,2013-02-25 00:58:00,
2013-02-24 18:03:00,20.3,12.7,30.07,NNW,339,0.0,15.0,72,0.00,,---,0.05,VWS V14.01,2013-02-25 01:03:00,
2013-02-24 18:08:00,20.2,12.0,30.09,NNW,339,6.0,15.0,70,0.00,,---,0.05,VWS V14.01,2013-02-25 01:08:00,
2013-02-24 18:13:00,20.2,12.0,30.09,NNW,338,11.0,13.0,70,0.00,,---,0.05,VWS V14.01,2013-02-25 01:13:00,
2013-02-24 18:18:00,20.2,12.0,30.10,NNW,339,8.0,10.0,70,0.00,,---,0.05,VWS V14.01,2013-02-25 01:18:00,
2013-02-24 18:23:00,20.2,11.7,30.10,NNW,339,6.0,11.0,69,0.00,,---,0.05,VWS V14.01,2013-02-25 01:23:00,
2013-02-24 18:28:00,20.2,12.3,30.11,NNW,339,3.0,5.0,71,0.00,,---,0.05,VWS V14.01,2013-02-25 01:28:00,
2013-02-24 18:33:00,19.9,12.3,30.11,NNW,338,1.0,15.0,72,0.00,,---,0.05,VWS V14.01,2013-02-25 01:33:00,
2013-02-24 18:38:00,19.7,12.5,30.11,NNW,340,11.0,14.0,73,0.00,,---,0.05,VWS V14.01,2013-02-25 01:38:00,
2013-02-24 18:43:00,19.7,12.1,30.12,NNW,340,12.0,14.0,72,0.00,,---,0.05,VWS V14.01,2013-02-25 01:43:00,
2013-02-24 18:48:00,19.7,12.5,30.12,NNW,340,5.0,10.0,73,0.00,,---,0.05,VWS V14.01,2013-02-25 01:48:00,
2013-02-24 18:53:00,19.5,12.3,30.12,NNW,338,13.0,18.0,73,0.00,,---,0.05,VWS V14.01,2013-02-25 01:53:00,
2013-02-24 18:58:00,19.1,12.2,30.12,NNW,338,8.0,11.0,74,0.00,,---,0.05,VWS V14.01,2013-02-25 01:58:00,
2013-02-24 19:03:00,18.9,12.3,30.12,NNW,338,2.0,12.0,75,0.00,,---,0.05,VWS V14.01,2013-02-25 02:03:00,
2013-02-24 19:09:00,18.7,12.4,30.12,NNW,338,2.0,9.0,76,0.00,,---,0.05,VWS V14.01,2013-02-25 02:09:00,
2013-02-24 19:14:00,18.6,12.3,30.13,NNW,338,6.0,14.0,76,0.00,,---,0.05,VWS V14.01,2013-02-25 02:14:00,
2013-02-24 19:19:00,18.6,12.3,30.13,NNW,338,6.0,10.0,76,0.00,,---,0.05,VWS V14.01,2013-02-25 02:19:00,
2013-02-24 19:24:00,18.7,12.4,30.13,NNW,338,1.0,12.0,76,0.00,,---,0.05,VWS V14.01,2013-02-25 02:24:00,
2013-02-24 19:29:00,18.8,12.2,30.14,NNW,338,8.0,10.0,75,0.00,,---,0.05,VWS V14.01,2013-02-25 02:29:00,
2013-02-24 19:34:00,18.8,11.9,30.14,NNW,338,2.0,9.0,74,0.00,,---,0.05,VWS V14.01,2013-02-25 02:34:00,
2013-02-24 19:39:00,18.9,11.7,30.13,NNW,338,1.0,5.0,73,0.00,,---,0.05,VWS V14.01,2013-02-25 02:39:00,
2013-02-24 19:44:00,18.9,11.4,30.14,NNW,338,2.0,6.0,72,0.00,,---,0.05,VWS V14.01,2013-02-25 02:44:00,
2013-02-24 19:49:00,18.9,11.4,30.14,NNW,339,0.0,4.0,72,0.00,,---,0.05,VWS V14.01,2013-02-25 02:49:00,
2013-02-24 19:54:00,18.8,11.3,30.14,NNW,339,0.0,2.0,72,0.00,,---,0.05,VWS V14.01,2013-02-25 02:54:00,
2013-02-24 19:59:00,18.7,11.2,30.14,NNW,338,0.0,1.0,72,0.00,,---,0.05,VWS V14.01,2013-02-25 02:59:00,
2013-02-24 20:04:00,18.8,11.3,30.15,NNW,339,0.0,1.0,72,0.00,,---,0.05,VWS V14.01,2013-02-25 03:04:00,
2013-02-24 20:09:00,18.8,11.0,30.13,NNW,338,0.0,5.0,71,0.00,,---,0.05,VWS V14.01,2013-02-25 03:09:00,
2013-02-24 20:14:00,18.8,11.0,30.13,NNW,339,0.0,5.0,71,0.00,,---,0.05,VWS V14.01,2013-02-25 03:14:00,
2013-02-24 20:19:00,18.7,10.6,30.13,NNW,338,7.0,13.0,70,0.00,,---,0.05,VWS V14.01,2013-02-25 03:19:00,
2013-02-24 20:24:00,18.8,10.6,30.13,NNW,338,10.0,12.0,70,0.00,,---,0.05,VWS V14.01,2013-02-25 03:24:00,
2013-02-24 20:29:00,18.6,10.8,30.13,NNW,338,11.0,13.0,71,0.00,,---,0.05,VWS V14.01,2013-02-25 03:29:00,
2013-02-24 20:34:00,18.4,10.9,30.13,NNW,338,7.0,12.0,72,0.00,,---,0.05,VWS V14.01,2013-02-25 03:34:00,
2013-02-24 20:39:00,18.4,10.6,30.14,NNW,338,9.0,9.0,71,0.00,,---,0.05,VWS V14.01,2013-02-25 03:39:00,
2013-02-24 20:44:00,18.3,10.8,30.14,NNW,338,8.0,10.0,72,0.00,,---,0.05,VWS V14.01,2013-02-25 03:44:00,
2013-02-24 20:49:00,18.3,10.5,30.14,NNW,338,0.0,6.0,71,0.00,,---,0.05,VWS V14.01,2013-02-25 03:49:00,
2013-02-24 20:54:00,18.3,10.5,30.14,NNW,338,7.0,11.0,71,0.00,,---,0.05,VWS V14.01,2013-02-25 03:54:00,
2013-02-24 20:59:00,18.4,10.3,30.14,NNW,338,0.0,9.0,70,0.00,,---,0.05,VWS V14.01,2013-02-25 03:59:00,
2013-02-24 21:04:00,18.5,12.2,30.14,NNW,338,2.0,9.0,76,0.00,,---,0.05,VWS V14.01,2013-02-25 04:04:00,
2013-02-24 21:09:00,18.6,10.1,30.13,NNW,338,2.0,6.0,69,0.00,,---,0.05,VWS V14.01,2013-02-25 04:09:00,